createdAt,value
2023-01-20T00:01:08.066Z,1.50
2023-01-20T00:03:34.575Z,1.70
2023-01-20T00:06:01.070Z,3.08
2023-01-20T00:08:28.383Z,2.60
2023-01-20T00:10:54.960Z,2.05
2023-01-20T00:13:21.420Z,2.65
2023-01-20T00:15:47.769Z,2.30
2023-01-20T00:18:14.993Z,1.23
2023-01-20T00:20:42.089Z,2.50
2023-01-20T00:23:08.529Z,1.27
2023-01-20T00:25:38.153Z,1.27
2023-01-20T00:28:04.964Z,1.60
2023-01-20T00:30:32.232Z,1.65
2023-01-20T00:32:58.807Z,1.83
2023-01-20T00:35:25.359Z,2.22
2023-01-20T00:37:51.734Z,2.47
2023-01-20T00:40:18.652Z,2.00
2023-01-20T00:42:45.055Z,1.10
2023-01-20T00:45:11.775Z,1.30
2023-01-20T00:47:38.573Z,3.47
2023-01-20T00:50:05.400Z,2.55
2023-01-20T00:52:31.713Z,2.00
2023-01-20T00:54:58.151Z,1.77
2023-01-20T00:57:24.466Z,3.45
2023-01-20T00:59:50.868Z,3.28
2023-01-20T01:02:17.338Z,3.30
2023-01-20T01:04:43.865Z,2.72
2023-01-20T01:07:10.674Z,3.63
2023-01-20T01:09:37.058Z,2.25
2023-01-20T01:12:03.776Z,3.47
2023-01-20T01:14:31.260Z,2.75
2023-01-20T01:16:57.720Z,3.28
2023-01-20T01:19:24.258Z,1.23
2023-01-20T01:21:50.673Z,2.53
2023-01-20T01:24:17.000Z,4.28
2023-01-20T01:26:43.319Z,2.45
2023-01-20T01:29:10.804Z,1.73
2023-01-20T01:31:37.261Z,3.00
2023-01-20T01:34:03.722Z,2.08
2023-01-20T01:36:30.093Z,3.03
2023-01-20T01:38:59.199Z,2.45
2023-01-20T01:41:26.121Z,3.30
2023-01-20T01:44:10.605Z,3.85
2023-01-20T01:46:39.757Z,2.17
2023-01-20T01:49:21.071Z,1.55
2023-01-20T01:51:55.242Z,4.13
2023-01-20T01:54:25.807Z,1.25
2023-01-20T01:56:52.886Z,1.90
2023-01-20T01:59:20.726Z,2.33
2023-01-20T02:01:51.185Z,1.70
2023-01-20T02:04:20.573Z,2.15
2023-01-20T02:06:50.988Z,2.20
2023-01-20T02:09:18.319Z,2.47
2023-01-20T02:11:49.479Z,1.98
2023-01-20T02:14:23.292Z,2.25
2023-01-20T02:17:11.537Z,3.03
2023-01-20T02:19:50.147Z,2.45
2023-01-20T02:22:19.498Z,1.77
2023-01-20T02:25:00.996Z,3.30
2023-01-20T02:28:01.955Z,1.75
2023-01-20T02:30:53.581Z,2.83
2023-01-20T02:33:30.316Z,1.92
2023-01-20T02:36:04.899Z,2.58
2023-01-20T02:38:56.254Z,4.03
2023-01-20T02:41:40.896Z,0.98
2023-01-20T02:44:17.895Z,2.40
2023-01-20T02:47:29.066Z,4.40
2023-01-20T02:50:00.981Z,2.13
2023-01-20T02:52:32.454Z,2.53
2023-01-20T02:55:06.514Z,2.78
2023-01-20T02:57:39.111Z,3.58
2023-01-20T03:00:12.854Z,2.42
2023-01-20T03:02:42.405Z,2.10
2023-01-20T03:05:26.683Z,2.13
2023-01-20T03:07:55.045Z,2.83
2023-01-20T03:10:24.617Z,3.20
2023-01-20T03:13:03.521Z,1.48
2023-01-20T03:15:47.290Z,1.70
2023-01-20T03:18:13.951Z,2.30
2023-01-20T03:20:40.339Z,1.30
2023-01-20T03:23:06.959Z,2.35
2023-01-20T03:25:33.692Z,1.80
2023-01-20T03:28:00.286Z,4.45
2023-01-20T03:30:26.703Z,2.33
2023-01-20T03:32:53.659Z,1.83
2023-01-20T03:35:20.281Z,1.83
2023-01-20T03:37:46.752Z,2.63
2023-01-20T03:40:14.574Z,2.35
2023-01-20T03:42:46.786Z,2.47
2023-01-20T03:45:29.724Z,2.30
2023-01-20T03:48:05.242Z,2.15
2023-01-20T03:50:38.052Z,0.82
2023-01-20T03:53:17.543Z,2.78
2023-01-20T03:55:51.786Z,2.22
2023-01-20T03:58:24.741Z,1.45
2023-01-20T04:00:53.053Z,1.50
2023-01-20T04:03:23.298Z,1.05
2023-01-20T04:05:50.874Z,1.90
2023-01-20T04:08:22.117Z,2.10
2023-01-20T04:10:49.663Z,2.75
2023-01-20T04:13:16.408Z,1.17
2023-01-20T04:15:45.102Z,1.60
2023-01-20T04:18:13.373Z,3.00
2023-01-20T04:20:40.445Z,1.35
2023-01-20T04:23:14.168Z,2.15
2023-01-20T04:25:40.577Z,1.63
2023-01-20T04:28:07.241Z,1.75
2023-01-20T04:30:33.795Z,2.30
2023-01-20T04:33:00.157Z,2.38
2023-01-20T04:35:26.522Z,1.95
2023-01-20T04:37:52.925Z,2.20
2023-01-20T04:40:19.644Z,2.25
2023-01-20T04:42:46.276Z,1.45
2023-01-20T04:45:17.242Z,2.20
2023-01-20T04:47:45.512Z,3.35
2023-01-20T04:50:13.395Z,2.17
2023-01-20T04:52:39.788Z,2.30
2023-01-20T04:55:06.913Z,1.70
2023-01-20T04:57:33.362Z,1.67
2023-01-20T04:59:59.713Z,1.85
2023-01-20T05:02:26.211Z,1.88
2023-01-20T05:04:52.569Z,2.35
2023-01-20T05:07:18.927Z,2.33
2023-01-20T05:09:45.392Z,1.98
2023-01-20T05:12:12.095Z,2.47
2023-01-20T05:14:38.405Z,2.60
2023-01-20T05:17:05.013Z,2.35
2023-01-20T05:19:31.340Z,2.65
2023-01-20T05:21:59.407Z,2.90
2023-01-20T05:24:25.951Z,1.27
2023-01-20T05:26:52.278Z,1.38
2023-01-20T05:29:18.677Z,3.03
2023-01-20T05:31:45.132Z,1.50
2023-01-20T05:34:11.596Z,1.30
2023-01-20T05:36:37.944Z,2.33
2023-01-20T05:39:04.372Z,1.83
2023-01-20T05:41:30.714Z,2.53
2023-01-20T05:43:57.127Z,3.63
2023-01-20T05:46:23.589Z,3.50
2023-01-20T05:48:50.022Z,1.92
2023-01-20T05:51:16.465Z,1.83
2023-01-20T05:53:43.015Z,2.03
2023-01-20T05:56:09.397Z,1.45
2023-01-20T05:58:35.706Z,1.92
2023-01-20T06:01:11.025Z,2.13
2023-01-20T06:06:09.274Z,2.28
2023-01-20T06:08:35.862Z,3.45
2023-01-20T06:11:02.276Z,2.85
2023-01-20T06:13:28.685Z,2.55
2023-01-20T06:15:55.894Z,2.30
2023-01-20T06:18:23.426Z,3.25
2023-01-20T06:20:50.262Z,3.45
2023-01-20T06:23:17.520Z,3.43
2023-01-20T06:25:43.960Z,4.90
2023-01-20T06:28:10.682Z,5.18
2023-01-20T06:30:37.108Z,2.25
2023-01-20T06:33:03.962Z,3.45
2023-01-20T06:35:30.298Z,3.53
2023-01-20T06:38:00.147Z,3.97
2023-01-20T06:40:29.589Z,3.05
2023-01-20T06:42:57.931Z,7.45
2023-01-20T06:45:24.437Z,5.78
2023-01-20T06:47:50.891Z,2.60
2023-01-20T06:50:17.337Z,4.38
2023-01-20T06:52:43.780Z,4.10
2023-01-20T06:55:10.167Z,2.67
2023-01-20T06:57:36.511Z,3.30
2023-01-20T07:00:05.345Z,3.65
2023-01-20T07:02:31.817Z,5.07
2023-01-20T07:04:58.521Z,9.10
2023-01-20T07:07:24.906Z,4.43
2023-01-20T07:09:54.735Z,6.20
2023-01-20T07:12:21.179Z,4.07
2023-01-20T07:14:47.576Z,2.72
2023-01-20T07:17:13.940Z,3.72
2023-01-20T07:19:40.422Z,2.60
2023-01-20T07:22:06.784Z,4.10
2023-01-20T07:24:33.189Z,3.25
2023-01-20T07:26:59.502Z,6.05
2023-01-20T07:29:27.126Z,4.25
2023-01-20T07:31:53.631Z,2.40
2023-01-20T07:34:20.112Z,4.45
2023-01-20T07:36:46.629Z,3.78
2023-01-20T07:39:13.146Z,3.72
2023-01-20T07:41:39.507Z,2.58
2023-01-20T07:44:05.978Z,4.13
2023-01-20T07:46:32.306Z,2.90
2023-01-20T07:48:58.815Z,3.40
2023-01-20T07:51:25.233Z,4.85
2023-01-20T07:53:51.640Z,4.97
2023-01-20T07:56:27.141Z,5.20
2023-01-20T07:58:55.340Z,4.65
2023-01-20T08:01:23.241Z,6.13
2023-01-20T08:03:49.716Z,3.28
2023-01-20T08:06:19.175Z,3.75
2023-01-20T08:08:46.021Z,3.45
2023-01-20T08:11:14.414Z,4.15
2023-01-20T08:13:41.394Z,3.25
2023-01-20T08:16:10.498Z,3.80
2023-01-20T08:18:37.621Z,2.60
2023-01-20T08:21:05.946Z,7.35
2023-01-20T08:23:33.261Z,4.95
2023-01-20T08:26:01.332Z,5.60
2023-01-20T08:28:29.367Z,4.90
2023-01-20T08:31:03.691Z,4.30
2023-01-20T08:33:30.586Z,6.77
2023-01-20T08:35:57.303Z,3.50
2023-01-20T08:38:23.645Z,4.13
2023-01-20T08:40:50.060Z,5.22
2023-01-20T08:43:16.472Z,3.50
2023-01-20T08:45:43.022Z,7.00
2023-01-20T08:48:10.348Z,5.15
2023-01-20T08:50:36.947Z,4.50
2023-01-20T08:53:03.459Z,4.68
2023-01-20T08:55:29.895Z,4.57
2023-01-20T08:57:56.227Z,6.28
2023-01-20T09:00:23.085Z,4.28
2023-01-20T09:02:49.658Z,4.00
2023-01-20T09:05:16.703Z,2.95
2023-01-20T09:07:43.260Z,3.25
2023-01-20T09:10:10.324Z,3.92
2023-01-20T09:12:36.758Z,5.25
2023-01-20T09:15:05.014Z,4.55
2023-01-20T09:17:32.006Z,5.05
2023-01-20T09:19:58.328Z,4.30
2023-01-20T09:22:24.742Z,4.35
2023-01-20T09:24:51.091Z,4.07
2023-01-20T09:27:17.407Z,6.55
2023-01-20T09:29:43.841Z,5.10
2023-01-20T09:32:13.006Z,3.95
2023-01-20T09:34:39.320Z,4.18
2023-01-20T09:37:05.752Z,2.33
2023-01-20T09:39:32.241Z,3.67
2023-01-20T09:42:05.560Z,4.80
2023-01-20T09:44:45.720Z,5.60
2023-01-20T09:47:20.968Z,3.05
2023-01-20T09:49:47.388Z,4.35
2023-01-20T09:52:19.831Z,6.25
2023-01-20T09:54:55.474Z,3.13
2023-01-20T09:57:24.905Z,4.30
2023-01-20T10:00:00.470Z,4.45
2023-01-20T10:02:33.737Z,4.53
2023-01-20T10:05:06.895Z,3.88
2023-01-20T10:07:49.995Z,4.28
2023-01-20T10:10:22.558Z,3.72
2023-01-20T10:12:57.547Z,2.72
2023-01-20T10:15:30.636Z,2.47
2023-01-20T10:18:06.292Z,2.97
2023-01-20T10:20:50.360Z,2.53
2023-01-20T10:23:41.132Z,2.65
2023-01-20T10:26:19.156Z,3.03
2023-01-20T10:29:01.397Z,2.35
2023-01-20T10:31:34.856Z,2.78
2023-01-20T10:34:15.433Z,3.22
2023-01-20T10:36:46.606Z,3.97
2023-01-20T10:39:25.090Z,3.08
2023-01-20T10:42:16.442Z,3.92
2023-01-20T10:44:43.790Z,4.50
2023-01-20T10:47:23.971Z,3.13
2023-01-20T10:49:59.581Z,2.35
2023-01-20T10:52:54.051Z,5.57
2023-01-20T10:55:32.307Z,2.80
2023-01-20T10:58:29.427Z,2.45
2023-01-20T11:00:57.782Z,3.15
2023-01-20T11:03:25.411Z,2.60
2023-01-20T11:05:52.375Z,3.40
2023-01-20T11:08:26.668Z,2.72
2023-01-20T11:10:57.018Z,3.45
2023-01-20T11:13:23.623Z,4.68
2023-01-20T11:15:54.784Z,2.47
2023-01-20T11:18:25.144Z,2.08
2023-01-20T11:20:56.696Z,2.53
2023-01-20T11:23:26.400Z,2.42
2023-01-20T11:25:56.399Z,2.80
2023-01-20T11:28:23.477Z,2.05
2023-01-20T11:30:56.816Z,2.15
2023-01-20T11:33:25.685Z,1.90
2023-01-20T11:36:17.629Z,2.33
2023-01-20T11:38:49.569Z,1.10
2023-01-20T11:41:28.908Z,2.15
2023-01-20T11:43:57.961Z,3.25
2023-01-20T11:46:31.848Z,1.45
2023-01-20T11:49:20.971Z,2.92
2023-01-20T11:51:55.974Z,2.03
2023-01-20T11:54:30.167Z,1.73
2023-01-20T11:57:02.988Z,2.85
2023-01-20T11:59:36.087Z,2.45
2023-01-20T12:02:22.431Z,2.30
2023-01-20T12:05:22.082Z,2.45
2023-01-20T12:07:52.138Z,1.80
2023-01-20T12:10:31.053Z,2.25
2023-01-20T12:13:10.893Z,3.30
2023-01-20T12:15:43.847Z,2.17
2023-01-20T12:18:19.642Z,1.92
2023-01-20T12:20:55.479Z,2.13
2023-01-20T12:23:43.957Z,2.75
2023-01-20T12:26:11.180Z,2.80
2023-01-20T12:28:52.760Z,1.95
2023-01-20T12:31:20.670Z,2.85
2023-01-20T12:33:54.814Z,3.03
2023-01-20T12:36:51.935Z,3.42
2023-01-20T12:39:27.515Z,2.25
2023-01-20T12:42:15.508Z,1.55
2023-01-20T12:44:57.174Z,1.42
2023-01-20T12:47:43.036Z,2.45
2023-01-20T12:53:02.890Z,2.38
2023-01-20T12:55:44.892Z,3.72
2023-01-20T12:58:29.539Z,2.55
2023-01-20T13:01:33.794Z,2.45
2023-01-20T13:04:35.493Z,2.85
2023-01-20T13:07:21.042Z,3.22
2023-01-20T13:10:15.540Z,1.63
2023-01-20T13:13:03.039Z,3.60
2023-01-20T13:15:34.902Z,2.97
2023-01-20T13:18:07.626Z,1.85
2023-01-20T13:20:38.010Z,3.05
2023-01-20T13:23:05.700Z,4.07
2023-01-20T13:25:34.537Z,3.42
2023-01-20T13:28:01.427Z,3.92
2023-01-20T13:30:36.832Z,2.80
2023-01-20T13:35:34.161Z,2.47
2023-01-20T13:38:01.863Z,3.88
2023-01-20T13:40:36.908Z,4.38
2023-01-20T13:43:23.595Z,3.10
2023-01-20T13:46:34.179Z,3.40
2023-01-20T13:49:24.871Z,3.17
2023-01-20T13:51:51.742Z,3.42
2023-01-20T13:54:23.883Z,3.70
2023-01-20T13:56:51.120Z,1.88
2023-01-20T13:59:17.950Z,3.30
2023-01-20T14:01:44.512Z,2.38
2023-01-20T14:04:18.795Z,3.50
2023-01-20T14:06:50.689Z,4.07
2023-01-20T14:09:25.768Z,3.10
2023-01-20T14:11:55.342Z,3.53
2023-01-20T14:14:24.849Z,2.60
2023-01-20T14:16:51.899Z,4.25
2023-01-20T14:19:28.795Z,2.95
2023-01-20T14:21:57.838Z,3.95
2023-01-20T14:24:28.094Z,2.65
2023-01-20T14:27:22.498Z,3.25
2023-01-20T14:29:53.889Z,2.88
2023-01-20T14:32:33.489Z,4.63
2023-01-20T14:35:00.878Z,2.88
2023-01-20T14:37:33.022Z,2.22
2023-01-20T14:40:01.492Z,3.80
2023-01-20T14:42:29.030Z,3.30
2023-01-20T14:44:57.519Z,3.95
2023-01-20T14:47:25.776Z,4.00
2023-01-20T14:49:53.976Z,3.92
2023-01-20T14:52:29.121Z,2.55
2023-01-20T14:54:55.941Z,4.20
2023-01-20T14:57:30.058Z,3.08
2023-01-20T15:00:11.696Z,3.63
2023-01-20T15:02:39.990Z,3.25
2023-01-20T15:05:27.265Z,4.18
2023-01-20T15:08:11.780Z,3.50
2023-01-20T15:10:39.182Z,6.15
2023-01-20T15:13:23.238Z,11.02
2023-01-20T15:15:49.649Z,5.15
2023-01-20T15:18:20.885Z,8.95
2023-01-20T15:21:11.786Z,7.45
2023-01-20T15:23:43.785Z,9.98
2023-01-20T15:26:23.233Z,9.77
2023-01-20T15:28:49.743Z,7.95
2023-01-20T15:31:17.225Z,13.88
2023-01-20T15:33:44.251Z,12.23
2023-01-20T15:36:22.199Z,13.38
2023-01-20T15:38:49.391Z,8.02
2023-01-20T15:41:16.109Z,3.50
2023-01-20T15:43:42.452Z,4.50
2023-01-20T15:46:14.194Z,5.22
2023-01-20T15:48:41.196Z,3.20
2023-01-20T15:51:13.120Z,2.15
2023-01-20T15:53:39.577Z,3.13
2023-01-20T15:56:06.290Z,5.10
2023-01-20T15:58:34.166Z,4.75
2023-01-20T16:01:00.760Z,3.65
2023-01-20T16:03:27.531Z,4.30
2023-01-20T16:05:55.804Z,4.25
2023-01-20T16:08:26.314Z,4.53
2023-01-20T16:10:52.709Z,5.70
2023-01-20T16:13:19.046Z,3.20
2023-01-20T16:15:45.387Z,5.30
2023-01-20T16:18:14.574Z,4.25
2023-01-20T16:20:42.575Z,2.95
2023-01-20T16:23:09.528Z,4.50
2023-01-20T16:25:36.737Z,3.45
2023-01-20T16:28:11.914Z,1.83
2023-01-20T16:30:38.280Z,2.67
2023-01-20T16:33:04.646Z,3.33
2023-01-20T16:35:31.052Z,3.35
2023-01-20T16:37:57.503Z,3.50
2023-01-20T16:40:23.963Z,3.03
2023-01-20T16:42:50.363Z,3.58
2023-01-20T16:45:25.908Z,3.70
2023-01-20T16:47:52.627Z,4.30
2023-01-20T16:50:19.285Z,4.40
2023-01-20T16:52:46.152Z,4.82
2023-01-20T16:55:13.679Z,5.10
2023-01-20T16:57:40.177Z,4.28
2023-01-20T17:00:07.611Z,4.25
2023-01-20T17:02:34.030Z,3.85
2023-01-20T17:05:00.648Z,4.57
2023-01-20T17:07:27.069Z,4.85
2023-01-20T17:09:53.465Z,3.45
2023-01-20T17:12:19.955Z,4.75
2023-01-20T17:14:46.469Z,4.05
2023-01-20T17:17:12.775Z,3.83
2023-01-20T17:19:39.176Z,3.92
2023-01-20T17:22:05.630Z,5.90
2023-01-20T17:24:32.121Z,4.13
2023-01-20T17:26:59.142Z,2.78
2023-01-20T17:29:27.155Z,4.05
2023-01-20T17:31:53.528Z,4.80
2023-01-20T17:34:19.954Z,5.40
2023-01-20T17:36:48.023Z,4.90
2023-01-20T17:39:15.580Z,4.95
2023-01-20T17:41:41.979Z,5.25
2023-01-20T17:44:08.592Z,3.30
2023-01-20T17:46:34.915Z,3.08
2023-01-20T17:49:02.423Z,4.05
2023-01-20T17:51:29.769Z,4.25
2023-01-20T17:53:57.998Z,4.03
2023-01-20T17:56:24.804Z,3.25
2023-01-20T17:58:51.617Z,3.33
2023-01-20T18:01:26.576Z,2.30
2023-01-20T18:03:54.994Z,3.25
2023-01-20T18:06:23.047Z,3.70
2023-01-20T18:08:52.020Z,5.75
2023-01-20T18:11:18.555Z,3.85
2023-01-20T18:13:45.946Z,5.63
2023-01-20T18:16:14.827Z,3.42
2023-01-20T18:18:43.350Z,4.18
2023-01-20T18:21:12.280Z,4.00
2023-01-20T18:23:39.323Z,6.10
2023-01-20T18:26:06.928Z,3.45
2023-01-20T18:28:33.909Z,2.97
2023-01-20T18:31:08.658Z,6.22
2023-01-20T18:33:46.054Z,4.00
2023-01-20T18:36:21.439Z,4.45
2023-01-20T18:41:18.157Z,4.68
2023-01-20T18:43:45.005Z,5.38
2023-01-20T18:46:11.862Z,3.35
2023-01-20T18:48:39.857Z,5.65
2023-01-20T18:51:07.127Z,5.57
2023-01-20T18:53:33.756Z,6.22
2023-01-20T18:56:05.287Z,4.05
2023-01-20T18:58:33.656Z,6.20
2023-01-20T19:01:08.170Z,3.75
2023-01-20T19:03:35.435Z,4.88
2023-01-20T19:06:06.871Z,4.63
2023-01-20T19:08:33.854Z,3.72
2023-01-20T19:11:01.903Z,6.45
2023-01-20T19:13:28.326Z,7.68
2023-01-20T19:15:54.903Z,8.63
2023-01-20T19:18:21.468Z,6.38
2023-01-20T19:20:47.888Z,5.20
2023-01-20T19:23:14.299Z,8.30
2023-01-20T19:25:40.883Z,8.68
2023-01-20T19:28:07.445Z,7.55
2023-01-20T19:30:33.989Z,6.60
2023-01-20T19:33:00.337Z,6.13
2023-01-20T19:35:26.850Z,4.38
2023-01-20T19:37:53.373Z,7.47
2023-01-20T19:40:19.819Z,4.47
2023-01-20T19:42:46.243Z,6.95
2023-01-20T19:45:12.547Z,4.50
2023-01-20T19:47:38.978Z,7.35
2023-01-20T19:50:05.997Z,4.25
2023-01-20T19:52:32.483Z,4.40
2023-01-20T19:54:58.889Z,5.72
2023-01-20T19:57:26.586Z,5.95
2023-01-20T19:59:53.439Z,4.30
2023-01-20T20:02:19.812Z,4.60
2023-01-20T20:04:46.253Z,4.22
2023-01-20T20:07:12.977Z,3.58
2023-01-20T20:09:39.399Z,4.30
2023-01-20T20:12:05.949Z,3.38
2023-01-20T20:14:33.630Z,5.28
2023-01-20T20:17:00.202Z,5.32
2023-01-20T20:19:26.630Z,6.32
2023-01-20T20:21:53.061Z,4.15
2023-01-20T20:24:20.084Z,4.30
2023-01-20T20:26:47.921Z,4.70
2023-01-20T20:29:16.074Z,5.03
2023-01-20T20:31:42.506Z,5.05
2023-01-20T20:34:12.963Z,5.03
2023-01-20T20:36:40.065Z,4.22
2023-01-20T20:39:06.504Z,3.72
2023-01-20T20:41:33.220Z,4.43
2023-01-20T20:44:01.103Z,5.47
2023-01-20T20:46:29.452Z,3.70
2023-01-20T20:48:57.619Z,5.75
2023-01-20T20:51:24.269Z,4.10
2023-01-20T20:53:56.588Z,6.07
2023-01-20T20:56:24.084Z,4.63
2023-01-20T20:59:00.809Z,5.28
2023-01-20T21:01:29.851Z,6.05
2023-01-20T21:03:56.425Z,5.88
2023-01-20T21:06:22.934Z,4.45
2023-01-20T21:08:49.383Z,6.03
2023-01-20T21:11:15.800Z,4.68
2023-01-20T21:13:42.498Z,4.85
2023-01-20T21:16:14.003Z,5.32
2023-01-20T21:18:41.352Z,4.22
2023-01-20T21:21:11.920Z,4.78
2023-01-20T21:23:38.867Z,3.88
2023-01-20T21:26:12.316Z,4.25
2023-01-20T21:28:39.753Z,3.58
2023-01-20T21:31:07.683Z,3.88
2023-01-20T21:33:34.961Z,5.07
2023-01-20T21:36:02.606Z,4.13
2023-01-20T21:38:29.062Z,3.90
2023-01-20T21:40:55.443Z,3.25
2023-01-20T21:43:21.865Z,4.07
2023-01-20T21:45:57.195Z,3.33
2023-01-20T21:50:49.867Z,5.13
2023-01-20T21:53:16.297Z,2.35
2023-01-20T21:55:42.901Z,3.55
2023-01-20T21:58:09.562Z,3.65
2023-01-20T22:00:35.987Z,4.47
2023-01-20T22:03:02.388Z,3.13
2023-01-20T22:05:29.395Z,3.55
2023-01-20T22:07:55.791Z,4.30
2023-01-20T22:10:22.346Z,7.43
2023-01-20T22:12:48.745Z,4.25
2023-01-20T22:15:15.246Z,3.88
2023-01-20T22:17:41.667Z,4.35
2023-01-20T22:20:08.797Z,4.25
2023-01-20T22:22:35.123Z,4.57
2023-01-20T22:25:01.598Z,4.32
2023-01-20T22:27:28.188Z,4.03
2023-01-20T22:29:55.059Z,4.57
2023-01-20T22:32:21.736Z,4.22
2023-01-20T22:34:48.221Z,3.78
2023-01-20T22:37:14.543Z,2.92
2023-01-20T22:39:40.970Z,4.10
2023-01-20T22:42:07.447Z,5.03
2023-01-20T22:44:33.761Z,5.57
2023-01-20T22:47:00.108Z,2.63
2023-01-20T22:49:26.830Z,5.03
2023-01-20T22:51:54.251Z,4.05
2023-01-20T22:54:20.702Z,5.25
2023-01-20T22:56:47.073Z,4.28
2023-01-20T22:59:13.501Z,5.97
2023-01-20T23:01:40.227Z,4.35
2023-01-20T23:04:06.550Z,5.40
2023-01-20T23:06:35.171Z,5.00
2023-01-20T23:09:05.065Z,3.00
2023-01-20T23:11:31.482Z,6.45
2023-01-20T23:13:58.138Z,3.75
2023-01-20T23:16:24.585Z,3.28
2023-01-20T23:18:51.802Z,3.00
2023-01-20T23:21:18.852Z,4.55
2023-01-20T23:23:45.503Z,5.13
2023-01-20T23:26:18.628Z,5.35
2023-01-20T23:28:46.725Z,4.97
2023-01-20T23:31:15.363Z,6.20
2023-01-20T23:33:43.884Z,5.80
2023-01-20T23:36:21.665Z,4.05
2023-01-20T23:38:48.353Z,4.95
2023-01-20T23:41:16.668Z,4.07
2023-01-20T23:43:43.402Z,3.05
2023-01-20T23:46:10.970Z,4.95
2023-01-20T23:48:38.412Z,4.00
2023-01-20T23:51:06.577Z,4.72
2023-01-20T23:53:36.510Z,5.05
2023-01-20T23:56:10.641Z,6.57
2023-01-20T23:58:37.058Z,2.80
